Lake Worth, FL (33467)

8:18 PM EDT on July 23, 2016 (GMT -0400)
| | Change Station

Elev -9999 ft 0.00 °N, 0.00 °E | Updated

Mostly Cloudy
Mostly Cloudy
80 °F
Feels Like 85 °F
N
4
Wind Variable Wind from SSW
Gusts mph

Today
High -- | Low -- °F
--% Chance of Precip.
Yesterday
High -- | Low -- °F
Precip. -- in
Pressure 30.02 in
Visibility 10.0 miles
Clouds Few 2200 ft
Mostly Cloudy 10000 ft
Mostly Cloudy 20000 ft
Heat Index 85 °F
Dew Point 73 °F
Humidity 82%
Rainfall --
Snow Depth Not available.
6:41 AM 8:12 PM
Waning Gibbous, 81% visible
METAR KPBI 232353Z 12007KT 10SM FEW022 BKN100 BKN200 29/23 A3002 RMK AO2 SLP166 CB DSNT NE 60000 T02890228 10300 20289 53003
Pressure 30.02 in
Visibility 10.0 miles
Clouds Few 2200 ft
Mostly Cloudy 10000 ft
Mostly Cloudy 20000 ft
Heat Index 85 °F
Dew Point 73 °F
Humidity 82%
Rainfall --
Snow Depth Not available.
6:41 AM 8:12 PM
Waning Gibbous, 81% visible
METAR KPBI 232353Z 12007KT 10SM FEW022 BKN100 BKN200 29/23 A3002 RMK AO2 SLP166 CB DSNT NE 60000 T02890228 10300 20289 53003

10-Day Weather Forecast

Almanac

Astronomy

Jul. 23, 2016 Rise Set
Actual Time
Civil Twilight
Nautical Twilight
Astronomical Twilight
Moon
Length of Visible Light
Length of Day
Tomorrow will be .
, % of the Moon is Illuminated

Today's Extremes

State Highs State Lows

Community

WunderPhotos

Upload Photos

1,926,979 photos uploaded!

WunderBlog® & News

Nearby

Air Quality

  Air Quality AQ Index Pollutant
Not available.

Snow Depth

Station Depth Elevation

Earthquake Activity

City Distance Mag. Time & Date
Minimum magnitude displayed is 2.5.

Coastal Water Temperatures

Place Temperature

Stations

Nearby Weather Stations

Station Location Temp. Windchill Dew Point Humidity Wind Precip. Elev Updated Type
                   

Watches & Warnings

There are currently no watches in effect.